Goodwood, United Kingdom
Current Conditions -  °F | °C
As of 2:50 PM on Tuesday 21 Oct 2014 (Local Time) from EGKA Reporting Station
Scattered Clouds Scattered Clouds  
Wind Chill: 57°   Ceiling: Unl
Heat Index: 57°   Visibility: 6mi
Dew Point: 39°   Wind: 24mph
Humidity: 51%   Direction: 290°WNW
Pressure: 29.8"   Gusts: NA
Location:  50.87°N, 0.73°W
Report Text: EGKA 211350Z 29021KT 9999 SCT035 14/04 Q1009
Loading
Personal Weather Stations






























Interactive Weather Map New forecast layout! Learn more

10-Day Weather Forecast

Advertisements
Track Severe Weather on mobile